Time;durP1;ratioP1;P1;durP2;ratioP2;P2;SDS_P1;SDS_P2;PMS_P1;PMS_P2;Temp;Humidity;BMP_temperature;BMP_pressure;BME280_temperature;BME280_humidity;BME280_pressure;Samples;Min_cycle;Max_cycle;Signal;HPM_P1;HPM_P2
2024/04/12 00:00:47;;;;;;;32.47;3.87;;;5.70;99.90;;;;;;1873686;76;25697;-87
2024/04/12 00:03:36;;;;;;;26.17;4.03;;;5.70;99.90;;;;;;1876704;75;25248;-87
2024/04/12 00:06:30;;;;;;;27.07;3.53;;;5.70;99.90;;;;;;1882921;75;25321;-85
2024/04/12 00:09:18;;;;;;;33.93;4.00;;;5.70;99.90;;;;;;1895466;75;25226;-86
2024/04/12 00:12:09;;;;;;;31.77;3.50;;;5.60;99.90;;;;;;1871682;76;25319;-86
2024/04/12 00:15:01;;;;;;;28.57;3.60;;;5.60;99.90;;;;;;1863209;76;25747;-86
2024/04/12 00:17:48;;;;;;;30.20;4.33;;;5.60;99.90;;;;;;1887709;75;25269;-85
2024/04/12 00:20:36;;;;;;;22.57;3.70;;;5.50;99.90;;;;;;1879194;76;25264;-85
2024/04/12 00:23:26;;;;;;;35.70;4.27;;;5.60;99.90;;;;;;1870137;75;25247;-85
2024/04/12 00:28:59;;;;;;;29.87;4.00;;;5.60;99.90;;;;;;1943597;72;27026;-86
2024/04/12 00:31:52;;;;;;;30.37;4.27;;;5.60;99.90;;;;;;1938170;73;25270;-86
2024/04/12 00:34:38;;;;;;;25.10;3.10;;;5.60;99.90;;;;;;1891006;75;25243;-86
2024/04/12 00:37:28;;;;;;;25.30;3.50;;;5.50;99.90;;;;;;1932513;73;25169;-86
2024/04/12 00:40:16;;;;;;;38.83;4.20;;;5.40;99.90;;;;;;1940804;72;25233;-86
2024/04/12 00:43:11;;;;;;;39.60;4.27;;;5.40;99.90;;;;;;1936641;72;25212;-86
2024/04/12 00:45:59;;;;;;;37.03;4.07;;;5.30;99.90;;;;;;1926306;73;25751;-86
2024/04/12 00:48:51;;;;;;;34.13;4.27;;;5.30;99.90;;;;;;1935850;73;25341;-85
2024/04/12 00:51:38;;;;;;;26.50;3.63;;;5.30;99.90;;;;;;1942689;72;25216;-86
2024/04/12 00:54:28;;;;;;;32.17;3.90;;;5.30;99.90;;;;;;1947173;72;25205;-85
2024/04/12 00:57:18;;;;;;;34.93;3.97;;;5.30;99.90;;;;;;1939135;73;25228;-85
2024/04/12 01:00:10;;;;;;;28.13;3.83;;;5.30;99.90;;;;;;1930854;73;25739;-85
2024/04/12 01:02:58;;;;;;;31.63;3.83;;;5.20;99.90;;;;;;1931382;73;25859;-85
2024/04/12 01:05:47;;;;;;;34.60;3.40;;;5.20;99.90;;;;;;1917432;73;25268;-86
2024/04/12 01:11:19;;;;;;;28.53;3.60;;;5.00;99.90;;;;;;1932625;72;27040;-86
2024/04/12 01:16:46;;;;;;;29.00;4.10;;;4.80;99.90;;;;;;1943984;72;27058;-86
2024/04/12 01:19:35;;;;;;;41.27;4.30;;;4.80;99.90;;;;;;1924647;73;25168;-86
2024/04/12 01:22:25;;;;;;;34.10;3.77;;;4.80;99.90;;;;;;1938716;73;25174;-86
2024/04/12 01:25:14;;;;;;;40.70;4.17;;;4.80;99.90;;;;;;1939129;72;25208;-86
2024/04/12 01:28:04;;;;;;;33.27;4.30;;;4.70;99.90;;;;;;1944653;73;25753;-86
2024/04/12 01:30:59;;;;;;;32.13;3.70;;;4.80;99.90;;;;;;1928789;72;25196;-86
2024/04/12 01:33:44;;;;;;;37.70;3.87;;;4.80;99.90;;;;;;1939318;72;25818;-86
2024/04/12 01:36:33;;;;;;;25.20;3.90;;;4.80;99.90;;;;;;1917653;73;25722;-86
2024/04/12 01:39:22;;;;;;;42.23;5.40;;;4.70;99.90;;;;;;1919908;73;25281;-87
2024/04/12 01:42:10;;;;;;;29.30;4.10;;;4.70;99.90;;;;;;1927272;73;25224;-86
2024/04/12 01:47:45;;;;;;;34.93;4.57;;;4.60;99.90;;;;;;2028190;69;27743;-86
2024/04/12 01:50:34;;;;;;;43.13;4.07;;;4.50;99.90;;;;;;1936973;73;25220;-86
2024/04/12 01:53:22;;;;;;;33.03;3.73;;;4.50;99.90;;;;;;1953291;72;25340;-86
2024/04/12 01:58:54;;;;;;;37.10;4.57;;;4.40;99.90;;;;;;1952319;72;27009;-86
2024/04/12 02:01:46;;;;;;;24.90;3.30;;;4.50;99.90;;;;;;1933787;73;25310;-86
2024/04/12 02:04:35;;;;;;;31.13;3.70;;;4.40;99.90;;;;;;1945691;73;25223;-87
2024/04/12 02:07:27;;;;;;;36.77;3.93;;;4.50;99.90;;;;;;1943135;72;25247;-87
2024/04/12 02:10:14;;;;;;;26.67;3.73;;;4.50;99.90;;;;;;1928077;72;25322;-87
2024/04/12 02:13:04;;;;;;;25.23;3.40;;;4.60;99.90;;;;;;1896994;75;25707;-86
2024/04/12 02:15:54;;;;;;;29.20;3.43;;;4.60;99.90;;;;;;1848668;76;25274;-86
2024/04/12 02:18:44;;;;;;;25.63;3.87;;;4.70;99.90;;;;;;1891380;75;25250;-86
2024/04/12 02:21:38;;;;;;;40.50;4.03;;;4.50;99.90;;;;;;1855696;76;25194;-87
2024/04/12 02:24:25;;;;;;;32.13;3.63;;;4.50;99.90;;;;;;1854959;76;25290;-86
2024/04/12 02:27:14;;;;;;;28.00;3.80;;;4.60;99.90;;;;;;1898583;75;25279;-86
2024/04/12 02:30:03;;;;;;;35.63;3.90;;;4.70;99.90;;;;;;1893732;74;25257;-87
2024/04/12 02:35:35;;;;;;;33.40;3.80;;;4.60;99.90;;;;;;1945872;72;27069;-86
2024/04/12 02:38:25;;;;;;;39.60;4.23;;;4.20;99.90;;;;;;1876751;74;26584;-87
2024/04/12 02:41:14;;;;;;;32.93;4.43;;;4.20;99.90;;;;;;1900200;75;25310;-87
2024/04/12 02:44:04;;;;;;;29.53;3.43;;;4.10;99.90;;;;;;1885213;74;25307;-87
2024/04/12 02:46:52;;;;;;;27.13;3.83;;;4.20;99.90;;;;;;1879396;74;25296;-87
2024/04/12 02:49:41;;;;;;;32.53;3.90;;;4.20;99.90;;;;;;1892926;75;25213;-85
2024/04/12 02:52:33;;;;;;;25.10;2.90;;;4.10;99.90;;;;;;1886618;75;25395;-85
2024/04/12 02:55:21;;;;;;;34.70;3.97;;;4.10;99.90;;;;;;1866361;75;25280;-86
2024/04/12 02:58:09;;;;;;;28.80;3.93;;;4.10;99.90;;;;;;1864788;76;25274;-85
2024/04/12 03:03:45;;;;;;;35.10;3.30;;;3.90;99.90;;;;;;1932521;72;27079;-86
2024/04/12 03:06:35;;;;;;;31.63;3.33;;;3.90;99.90;;;;;;1901935;75;25159;-86
2024/04/12 03:09:27;;;;;;;35.23;3.90;;;3.90;99.90;;;;;;1894016;73;25225;-86
2024/04/12 03:12:14;;;;;;;29.80;3.37;;;3.70;99.90;;;;;;1902887;73;25257;-86
2024/04/12 03:15:04;;;;;;;44.33;4.17;;;3.80;99.90;;;;;;1893545;73;25254;-86
2024/04/12 03:20:37;;;;;;;32.27;4.13;;;3.80;99.90;;;;;;1926548;72;27413;-87
2024/04/12 03:23:28;;;;;;;18.73;3.17;;;3.80;99.90;;;;;;1887564;75;25218;-86
2024/04/12 03:26:18;;;;;;;27.37;3.07;;;3.90;99.90;;;;;;1872981;74;25223;-86
2024/04/12 03:29:08;;;;;;;25.43;3.50;;;3.90;99.90;;;;;;1897512;75;25775;-86
2024/04/12 03:31:57;;;;;;;29.23;3.40;;;3.80;99.90;;;;;;1874477;74;25247;-87
2024/04/12 03:34:49;;;;;;;28.23;3.20;;;3.60;99.90;;;;;;1887791;75;25228;-86
2024/04/12 03:37:38;;;;;;;26.17;3.57;;;3.50;99.90;;;;;;1896859;75;25580;-86
2024/04/12 03:40:28;;;;;;;22.00;3.50;;;3.50;99.90;;;;;;1879728;75;25238;-86
2024/04/12 03:43:21;;;;;;;27.97;3.57;;;3.50;99.90;;;;;;1891307;75;25249;-86
2024/04/12 03:46:07;;;;;;;36.83;3.00;;;3.50;99.90;;;;;;1910250;73;25233;-86
2024/04/12 03:49:00;;;;;;;25.87;3.63;;;3.60;99.90;;;;;;1880736;75;25172;-86
2024/04/12 03:51:47;;;;;;;24.27;2.70;;;3.70;99.90;;;;;;1820380;78;25271;-86
2024/04/12 03:54:36;;;;;;;28.37;3.27;;;3.70;99.90;;;;;;1836473;77;25283;-86
2024/04/12 03:57:26;;;;;;;29.40;3.40;;;3.70;99.90;;;;;;1820099;77;25223;-86
2024/04/12 04:02:54;;;;;;;26.70;3.60;;;3.60;99.90;;;;;;2006252;69;26971;-86
2024/04/12 04:08:29;;;;;;;33.77;3.47;;;3.70;99.90;;;;;;1954475;72;27014;-87
2024/04/12 04:11:18;;;;;;;34.27;4.00;;;3.70;99.90;;;;;;1917187;74;25344;-87
2024/04/12 04:14:09;;;;;;;28.67;3.80;;;3.90;99.90;;;;;;1919435;73;25696;-86
2024/04/12 04:17:00;;;;;;;33.37;3.53;;;4.00;99.90;;;;;;1942566;73;25318;-87
2024/04/12 04:19:51;;;;;;;26.07;3.13;;;4.00;99.90;;;;;;1927902;73;25267;-86
2024/04/12 04:22:41;;;;;;;30.73;3.20;;;4.00;99.90;;;;;;1920495;73;25226;-86
2024/04/12 04:25:31;;;;;;;28.43;3.30;;;4.00;99.90;;;;;;1925205;73;25370;-86
2024/04/12 04:28:27;;;;;;;26.70;3.00;;;4.10;99.90;;;;;;1934032;73;25269;-86
2024/04/12 04:31:09;;;;;;;33.57;3.93;;;4.10;99.90;;;;;;1930010;73;25324;-86
2024/04/12 04:33:58;;;;;;;35.97;3.60;;;4.10;99.90;;;;;;1919515;73;25640;-86
2024/04/12 04:36:49;;;;;;;35.77;3.53;;;4.20;99.90;;;;;;1930570;73;25229;-85
2024/04/12 04:39:38;;;;;;;28.50;3.63;;;4.20;99.90;;;;;;1937351;73;25174;-86
2024/04/12 04:42:27;;;;;;;32.23;4.70;;;4.20;99.90;;;;;;1883707;75;25329;-86
2024/04/12 04:48:01;;;;;;;36.67;4.10;;;4.20;99.90;;;;;;1965982;72;26897;-87
2024/04/12 04:50:49;;;;;;;35.37;3.47;;;4.30;99.90;;;;;;1942488;73;25356;-86
2024/04/12 04:56:24;;;;;;;29.27;3.93;;;4.20;99.90;;;;;;1933088;72;27107;-85
2024/04/12 04:59:10;;;;;;;53.70;4.80;;;4.20;99.90;;;;;;1892947;75;25285;-87
2024/04/12 05:02:00;;;;;;;37.40;4.43;;;4.30;99.90;;;;;;1901521;73;25168;-87
2024/04/12 05:04:50;;;;;;;42.17;4.30;;;4.30;99.90;;;;;;1902906;73;25731;-87
2024/04/12 05:07:44;;;;;;;41.40;4.87;;;4.30;99.90;;;;;;1893717;75;25700;-87
2024/04/12 05:10:33;;;;;;;44.47;4.43;;;4.40;99.90;;;;;;1892344;75;25188;-87
2024/04/12 05:13:19;;;;;;;33.03;4.57;;;4.30;99.90;;;;;;1891319;73;25288;-87
2024/04/12 05:16:10;;;;;;;48.50;4.80;;;4.30;99.90;;;;;;1888597;73;26499;-87
2024/04/12 05:19:07;;;;;;;43.37;5.30;;;4.30;99.90;;;;;;1896458;75;25575;-87
2024/04/12 05:21:48;;;;;;;38.27;4.57;;;4.40;99.90;;;;;;1894957;75;25741;-87
2024/04/12 05:24:36;;;;;;;55.37;5.27;;;4.50;99.90;;;;;;1900383;73;25225;-87
2024/04/12 05:27:25;;;;;;;60.10;5.40;;;4.60;99.90;;;;;;1905860;73;25215;-87
2024/04/12 05:30:13;;;;;;;48.27;5.37;;;4.60;99.90;;;;;;1898136;75;25234;-87
2024/04/12 05:33:02;;;;;;;41.17;5.83;;;4.60;99.90;;;;;;1883955;75;25251;-88
2024/04/12 05:38:33;;;;;;;44.97;5.20;;;4.70;99.90;;;;;;1925711;72;27098;-86
2024/04/12 05:41:20;;;;;;;37.70;4.67;;;4.70;99.90;;;;;;1835209;76;25301;-85
2024/04/12 05:44:09;;;;;;;43.37;5.73;;;4.80;99.90;;;;;;1847131;77;25304;-86
2024/04/12 05:46:57;;;;;;;49.27;5.53;;;4.90;99.90;;;;;;1816808;77;25302;-86
2024/04/12 05:49:46;;;;;;;29.80;4.73;;;5.10;99.90;;;;;;1883994;74;25712;-86
2024/04/12 05:52:35;;;;;;;45.90;4.97;;;5.20;99.90;;;;;;1889129;76;25797;-86
2024/04/12 05:55:24;;;;;;;55.10;5.93;;;5.20;99.90;;;;;;1876128;74;25376;-87
2024/04/12 05:58:13;;;;;;;45.77;5.87;;;5.10;99.90;;;;;;1869786;76;25263;-86
2024/04/12 06:01:07;;;;;;;38.10;4.87;;;5.10;99.90;;;;;;1871438;74;25267;-87
2024/04/12 06:03:53;;;;;;;39.90;5.20;;;5.20;99.90;;;;;;1860987;74;25316;-87
2024/04/12 06:09:22;;;;;;;59.70;6.13;;;5.40;99.90;;;;;;1943218;72;26928;-87
2024/04/12 06:12:11;;;;;;;50.00;5.63;;;5.40;99.90;;;;;;1920164;73;25322;-87
2024/04/12 06:17:44;;;;;;;46.40;5.37;;;5.50;99.90;;;;;;1943031;72;27014;-87
2024/04/12 06:20:33;;;;;;;59.60;5.93;;;5.40;99.90;;;;;;1946750;73;25736;-87
2024/04/12 06:23:22;;;;;;;44.03;5.53;;;5.30;99.90;;;;;;1936526;73;25258;-87
2024/04/12 06:26:11;;;;;;;59.37;6.33;;;5.40;99.90;;;;;;1944623;73;25150;-87
2024/04/12 06:29:05;;;;;;;51.83;6.33;;;5.40;99.90;;;;;;1939771;73;25738;-87
2024/04/12 06:31:50;;;;;;;59.00;6.73;;;5.50;99.90;;;;;;1924160;73;25241;-87
2024/04/12 06:34:41;;;;;;;63.80;6.33;;;5.50;99.90;;;;;;1943513;72;25230;-87
2024/04/12 06:37:31;;;;;;;63.03;6.27;;;5.40;99.90;;;;;;1937300;72;25288;-87
2024/04/12 06:40:19;;;;;;;60.70;7.00;;;5.10;99.90;;;;;;1935227;72;25258;-87
2024/04/12 06:43:07;;;;;;;60.23;7.83;;;5.10;99.90;;;;;;1934945;72;25792;-87
2024/04/12 06:48:40;;;;;;;67.40;7.27;;;5.10;99.90;;;;;;1940933;72;27589;-87
2024/04/12 06:54:08;;;;;;;61.03;6.33;;;5.30;99.90;;;;;;1931593;72;27073;-87
2024/04/12 06:59:44;;;;;;;50.80;6.60;;;5.50;99.90;;;;;;1962505;72;26966;-87
2024/04/12 07:02:30;;;;;;;62.90;7.43;;;5.60;99.90;;;;;;1921475;73;25320;-87
2024/04/12 07:05:21;;;;;;;57.57;7.60;;;5.70;99.90;;;;;;1934996;73;25244;-87
2024/04/12 07:08:10;;;;;;;67.60;7.03;;;5.80;99.90;;;;;;1930979;73;25237;-86
2024/04/12 07:11:07;;;;;;;70.83;8.17;;;5.90;99.90;;;;;;1928473;73;25738;-87
2024/04/12 07:13:49;;;;;;;57.03;7.37;;;5.90;99.90;;;;;;1928070;72;25373;-85
2024/04/12 07:16:39;;;;;;;66.70;7.97;;;5.80;99.90;;;;;;1917979;73;25320;-85
2024/04/12 07:19:28;;;;;;;55.90;7.53;;;5.90;99.90;;;;;;1917816;73;25162;-85
2024/04/12 07:22:19;;;;;;;61.10;7.80;;;5.90;99.90;;;;;;1927318;73;25234;-86
2024/04/12 07:25:09;;;;;;;70.07;7.83;;;5.90;99.90;;;;;;1923404;73;25251;-86
2024/04/12 07:30:41;;;;;;;64.37;7.57;;;5.90;99.90;;;;;;1933800;72;27108;-86
2024/04/12 07:33:31;;;;;;;60.20;7.90;;;5.80;99.90;;;;;;1897522;75;25232;-86
2024/04/12 07:36:20;;;;;;;59.87;6.53;;;5.80;99.90;;;;;;1915395;74;25301;-87
2024/04/12 07:41:51;;;;;;;67.60;6.60;;;5.90;99.90;;;;;;1931813;72;26989;-87
2024/04/12 07:44:41;;;;;;;73.80;7.07;;;5.90;99.90;;;;;;1906206;75;25289;-86
2024/04/12 07:47:29;;;;;;;57.63;6.93;;;5.90;99.90;;;;;;1914407;74;25221;-86
2024/04/12 07:50:21;;;;;;;77.97;8.50;;;5.90;99.90;;;;;;1912387;75;25315;-85
2024/04/12 07:53:21;;;;;;;67.03;7.70;;;5.90;99.90;;;;;;1900808;73;26189;-87
2024/04/12 07:56:08;;;;;;;61.00;6.40;;;6.00;99.90;;;;;;1874351;76;25281;-87
2024/04/12 07:59:01;;;;;;;66.10;7.63;;;5.80;99.90;;;;;;1856663;76;26390;-87
2024/04/12 08:01:45;;;;;;;61.97;6.70;;;5.90;99.90;;;;;;1857556;76;25197;-85
2024/04/12 08:04:36;;;;;;;54.33;6.53;;;5.90;99.90;;;;;;1861919;75;25266;-85
2024/04/12 08:07:29;;;;;;;67.83;7.27;;;5.90;99.90;;;;;;1873032;76;25192;-85
2024/04/12 08:12:57;;;;;;;68.50;7.50;;;6.30;99.90;;;;;;1929373;72;27031;-87
2024/04/12 08:15:43;;;;;;;65.47;7.93;;;6.40;99.90;;;;;;1855066;76;25474;-86
2024/04/12 08:18:35;;;;;;;48.93;6.53;;;6.40;99.90;;;;;;1844686;77;25295;-87
2024/04/12 08:21:27;;;;;;;61.57;6.40;;;6.10;99.90;;;;;;1859955;76;25335;-86
2024/04/12 08:24:15;;;;;;;67.47;6.97;;;6.10;99.90;;;;;;1852100;76;25362;-86
2024/04/12 08:27:02;;;;;;;48.60;6.30;;;6.20;99.90;;;;;;1886031;75;25234;-87
2024/04/12 08:29:51;;;;;;;67.27;7.17;;;6.10;99.90;;;;;;1903614;74;25230;-87
2024/04/12 08:32:42;;;;;;;47.20;6.27;;;6.20;99.90;;;;;;1861841;76;25275;-87
2024/04/12 08:35:30;;;;;;;66.90;7.17;;;6.30;99.90;;;;;;1905025;74;25243;-87
2024/04/12 08:38:21;;;;;;;46.60;5.60;;;6.30;99.90;;;;;;1909263;74;25849;-87
2024/04/12 08:41:09;;;;;;;58.80;7.03;;;6.50;99.90;;;;;;1912333;75;25193;-87
2024/04/12 08:43:59;;;;;;;52.17;6.53;;;6.40;99.90;;;;;;1910140;74;25174;-87
2024/04/12 08:46:49;;;;;;;60.17;5.97;;;6.50;99.90;;;;;;1903556;74;25275;-87
2024/04/12 08:49:45;;;;;;;59.53;6.70;;;6.40;99.90;;;;;;1902235;74;25178;-87
2024/04/12 08:52:29;;;;;;;54.77;6.70;;;6.40;99.90;;;;;;1905296;74;25192;-86
2024/04/12 08:58:01;;;;;;;47.07;6.37;;;6.60;99.90;;;;;;1950776;72;26998;-88
2024/04/12 09:00:52;;;;;;;49.23;6.30;;;6.90;99.90;;;;;;1920419;73;25216;-87
2024/04/12 09:06:23;;;;;;;53.33;5.83;;;7.40;99.90;;;;;;1937585;72;27000;-88
2024/04/12 09:09:13;;;;;;;51.67;6.10;;;7.30;99.90;;;;;;1942097;73;25759;-87
2024/04/12 09:12:01;;;;;;;63.63;6.87;;;7.40;99.90;;;;;;1937464;73;25626;-87
2024/04/12 09:14:50;;;;;;;56.37;7.23;;;7.40;99.90;;;;;;1944307;73;25207;-87
2024/04/12 09:17:41;;;;;;;58.77;6.57;;;7.20;99.90;;;;;;1969657;72;25579;-87
2024/04/12 09:20:31;;;;;;;53.87;6.57;;;6.90;99.90;;;;;;1944597;72;25333;-87
2024/04/12 09:23:32;;;;;;;50.70;5.80;;;6.80;99.90;;;;;;1946965;72;25279;-87
2024/04/12 09:26:22;;;;;;;57.00;6.27;;;6.70;99.90;;;;;;1930599;72;25685;-87
2024/04/12 09:29:16;;;;;;;51.03;6.00;;;6.60;99.90;;;;;;1933205;72;25729;-86
2024/04/12 09:35:13;;;;;;;65.77;7.53;;;6.80;99.90;;;;;;1931120;72;25214;-86
2024/04/12 09:38:05;;;;;;;62.40;7.03;;;6.80;99.90;;;;;;1950210;72;25831;-87
2024/04/12 09:41:03;;;;;;;45.77;6.60;;;6.80;99.90;;;;;;1946280;72;25733;-87
2024/04/12 09:43:47;;;;;;;62.17;6.00;;;6.80;99.90;;;;;;1940989;72;25873;-87
2024/04/12 10:37:22;;;;;;;46.43;6.67;;;6.70;99.90;;;;;;1941585;72;25219;-87
2024/04/12 10:39:13;;;;;;;55.40;7.40;;;7.60;99.90;;;;;;1899636;74;25294;-88
2024/04/12 10:42:05;;;;;;;69.43;8.63;;;7.60;99.90;;;;;;1913648;75;25332;-88
2024/04/12 10:44:56;;;;;;;56.87;8.13;;;7.60;99.90;;;;;;1907852;74;25362;-87
2024/04/12 10:47:44;;;;;;;55.20;8.13;;;7.70;99.90;;;;;;1903797;74;25346;-87
2024/04/12 10:50:36;;;;;;;70.17;8.23;;;7.60;99.90;;;;;;1914444;74;25223;-88
2024/04/12 10:53:23;;;;;;;50.03;7.27;;;7.60;99.90;;;;;;1906533;75;25738;-87
2024/04/12 10:56:18;;;;;;;51.67;6.07;;;7.60;99.90;;;;;;1880776;76;25772;-88
2024/04/12 10:59:05;;;;;;;44.87;6.73;;;7.60;99.90;;;;;;1870016;76;25270;-87
2024/04/12 11:01:53;;;;;;;40.60;6.77;;;7.50;99.90;;;;;;1864894;76;25272;-87
2024/04/12 11:07:50;;;;;;;44.87;5.93;;;7.50;99.90;;;;;;1881189;76;25681;-87
2024/04/12 11:10:39;;;;;;;36.70;5.93;;;7.40;99.90;;;;;;1876111;76;25256;-87
2024/04/12 11:32:00;;;;;;;14.80;3.73;;;7.40;99.90;;;;;;1938011;73;25258;-87
2024/04/12 11:34:51;;;;;;;16.53;4.20;;;7.40;99.90;;;;;;1931552;72;25297;-87
2024/04/12 11:40:24;;;;;;;17.57;3.73;;;7.40;99.90;;;;;;1964546;72;26936;-87
2024/04/12 11:43:14;;;;;;;14.10;3.87;;;7.50;99.90;;;;;;1938108;73;25750;-88
2024/04/12 11:46:02;;;;;;;15.00;3.63;;;7.30;99.90;;;;;;1926145;73;25311;-88
2024/04/12 11:48:56;;;;;;;15.03;4.03;;;7.30;99.90;;;;;;1927914;73;25223;-88
2024/04/12 11:51:48;;;;;;;10.80;3.93;;;7.30;99.90;;;;;;1917629;73;25283;-87
2024/04/12 11:54:36;;;;;;;12.80;4.07;;;7.40;99.90;;;;;;1935893;73;25320;-87
2024/04/12 11:57:27;;;;;;;10.80;3.67;;;7.40;99.90;;;;;;1914155;75;25172;-88
2024/04/12 12:00:18;;;;;;;6.73;3.30;;;7.60;99.90;;;;;;1932694;73;25872;-88
2024/04/12 12:03:07;;;;;;;4.67;2.90;;;7.80;99.90;;;;;;1927961;73;25756;-87
2024/04/12 12:06:06;;;;;;;5.20;2.60;;;7.70;99.90;;;;;;1931907;73;25674;-88
2024/04/12 12:08:56;;;;;;;6.53;2.77;;;7.70;99.90;;;;;;1924640;73;25285;-88
2024/04/12 12:11:37;;;;;;;7.10;2.70;;;7.70;99.90;;;;;;1916905;73;25229;-88
2024/04/12 12:14:26;;;;;;;10.33;2.93;;;7.70;99.90;;;;;;1909283;73;25256;-88
2024/04/12 12:17:18;;;;;;;7.17;2.73;;;7.70;99.90;;;;;;1893799;75;25248;-88
2024/04/12 12:20:07;;;;;;;4.10;2.80;;;7.60;99.90;;;;;;1856665;76;25246;-89
2024/04/12 12:22:56;;;;;;;8.07;2.83;;;7.60;99.90;;;;;;1867257;75;25913;-89
2024/04/12 12:25:47;;;;;;;4.97;2.57;;;7.50;99.90;;;;;;1880889;75;25286;-88
2024/04/12 12:28:35;;;;;;;13.57;2.73;;;7.50;99.90;;;;;;1903663;75;25312;-88
2024/04/12 12:31:23;;;;;;;8.17;2.60;;;7.50;99.90;;;;;;1888239;75;25180;-89
2024/04/12 12:47:20;;;;;;;8.57;2.00;;;7.40;99.90;;;;;;1846130;77;27070;-88
2024/04/12 12:53:56;;;;;;;4.53;2.17;;;7.40;99.90;;;;;;2024569;69;26794;-88
2024/04/12 12:56:44;;;;;;;12.53;2.37;;;7.40;99.90;;;;;;1897006;75;25236;-89
2024/04/12 12:59:34;;;;;;;4.77;1.87;;;7.30;99.90;;;;;;1877290;75;25201;-88
2024/04/12 13:02:24;;;;;;;29.20;2.33;;;7.30;99.90;;;;;;1872004;76;25231;-88
2024/04/12 13:05:14;;;;;;;23.03;2.20;;;7.40;99.90;;;;;;1871655;76;26387;-88
2024/04/12 13:23:25;;;;;;;17.63;2.30;;;7.40;99.90;;;;;;1987439;71;26333;-89
2024/04/12 13:29:10;;;;;;;13.57;1.63;;;8.00;99.90;;;;;;1946886;72;27078;-89
2024/04/12 13:31:57;;;;;;;19.53;2.10;;;8.10;99.90;;;;;;1917983;73;25307;-88
2024/04/12 13:34:47;;;;;;;48.07;2.20;;;8.10;99.90;;;;;;1923174;73;25308;-89
2024/04/12 13:40:18;;;;;;;18.83;1.60;;;8.30;99.90;;;;;;1937508;72;27016;-89
2024/04/12 13:52:14;;;;;;;29.73;2.53;;;8.40;99.90;;;;;;1932953;73;25606;-89
2024/04/12 13:55:02;;;;;;;35.13;2.67;;;8.30;99.90;;;;;;1906871;75;25258;-86
2024/04/12 13:57:52;;;;;;;29.80;3.00;;;8.30;99.90;;;;;;1911743;75;25231;-87
2024/04/12 14:00:48;;;;;;;45.43;4.10;;;8.50;99.90;;;;;;1906011;73;25172;-89
2024/04/12 14:03:31;;;;;;;28.70;4.30;;;8.60;99.90;;;;;;1912465;73;25267;-87
2024/04/12 14:06:23;;;;;;;28.17;4.70;;;8.80;99.90;;;;;;1908259;73;25169;-87
2024/04/12 14:11:55;;;;;;;4.17;2.60;;;9.00;99.90;;;;;;1946641;72;27050;-89
2024/04/12 14:14:43;;;;;;;9.03;3.40;;;9.00;99.90;;;;;;1897581;75;25182;-87
2024/04/12 14:20:24;;;;;;;6.20;2.83;;;9.20;99.90;;;;;;1957707;72;27138;-87
2024/04/12 14:50:07;;;;;;;4.60;2.17;;;9.80;99.90;;;;;;1941492;72;27021;-88
2024/04/12 14:52:54;;;;;;;12.77;2.30;;;9.70;99.90;;;;;;1943643;73;25645;-88
2024/04/12 14:58:29;;;;;;;12.33;2.87;;;9.40;99.90;;;;;;1960540;72;27561;-88
2024/04/12 15:01:17;;;;;;;9.73;2.40;;;9.20;99.90;;;;;;1917461;73;25759;-88
2024/04/12 15:49:34;;;;;;;1.73;1.60;;;8.20;99.90;;;;;;1901534;75;25767;-88
2024/04/12 15:52:21;;;;;;;5.13;1.70;;;8.10;99.90;;;;;;1893342;75;25232;-87
2024/04/12 15:55:16;;;;;;;4.40;1.70;;;8.10;99.90;;;;;;1875558;76;25231;-87
2024/04/12 16:10:48;;;;;;;1.00;1.00;;;7.80;99.90;;;;;;1875573;76;25223;-86
2024/04/12 16:16:16;;;;;;;6.50;1.40;;;7.60;99.90;;;;;;1975349;72;27042;-88
2024/04/12 16:19:06;;;;;;;1.57;1.47;;;7.80;99.90;;;;;;1947113;73;25169;-88
2024/04/12 16:21:54;;;;;;;1.70;1.60;;;7.90;99.90;;;;;;1947310;73;25834;-87
2024/04/12 16:24:43;;;;;;;3.43;2.30;;;8.10;99.90;;;;;;1939724;73;25206;-87
2024/04/12 16:27:31;;;;;;;4.50;2.80;;;8.10;99.90;;;;;;1929009;73;25731;-86
2024/04/12 16:30:20;;;;;;;3.10;2.27;;;8.10;99.90;;;;;;1945408;73;25748;-87
2024/04/12 16:33:13;;;;;;;2.50;2.30;;;8.20;99.90;;;;;;1944800;73;25742;-87
2024/04/12 16:36:01;;;;;;;7.43;5.73;;;8.30;99.90;;;;;;1932556;73;25280;-87
2024/04/12 16:38:51;;;;;;;2.80;2.20;;;8.20;99.90;;;;;;1922815;73;25264;-88
2024/04/12 16:41:41;;;;;;;6.87;5.10;;;8.10;99.90;;;;;;1924671;73;25599;-87
2024/04/12 16:44:30;;;;;;;1.27;1.27;;;7.90;99.90;;;;;;1926805;73;25219;-87
2024/04/12 16:50:00;;;;;;;1.90;1.80;;;7.60;99.90;;;;;;1984062;71;27089;-86
2024/04/12 16:55:41;;;;;;;1.90;1.80;;;7.60;99.90;;;;;;1916556;72;27023;-88
2024/04/12 16:58:31;;;;;;;2.33;2.13;;;7.60;99.90;;;;;;1914028;75;25279;-88
2024/04/12 17:01:19;;;;;;;1.40;1.30;;;7.70;99.90;;;;;;1892007;75;25230;-88
2024/04/12 17:04:09;;;;;;;4.00;3.53;;;7.60;99.90;;;;;;1908194;75;25661;-88
2024/04/12 17:06:58;;;;;;;2.40;2.20;;;7.70;99.90;;;;;;1895490;75;25306;-88
2024/04/12 17:12:32;;;;;;;4.40;4.00;;;7.40;99.90;;;;;;1935283;72;27008;-86
2024/04/12 17:15:21;;;;;;;3.70;3.37;;;7.40;99.90;;;;;;1876576;76;25275;-88
2024/04/12 17:20:54;;;;;;;1.50;1.40;;;7.50;99.90;;;;;;1941114;72;27082;-88
2024/04/12 17:23:43;;;;;;;1.70;1.60;;;7.60;99.90;;;;;;1902223;75;25234;-86
2024/04/12 17:31:19;;;;;;;3.87;2.40;;;8.00;99.90;;;;;;1990131;71;26327;-88
2024/04/12 17:34:10;;;;;;;3.93;2.83;;;8.10;99.90;;;;;;1957250;72;25639;-88
2024/04/12 17:36:59;;;;;;;4.70;2.37;;;8.10;99.90;;;;;;2052887;69;25132;-88
2024/04/12 17:39:50;;;;;;;4.63;3.03;;;8.10;99.90;;;;;;2050334;69;25730;-88
2024/04/12 17:42:39;;;;;;;3.53;2.90;;;8.10;99.90;;;;;;2056110;69;25254;-88
2024/04/12 17:45:30;;;;;;;2.17;1.97;;;8.00;99.90;;;;;;2048260;69;25727;-88
2024/04/12 17:48:20;;;;;;;6.33;3.80;;;7.90;99.90;;;;;;1974229;72;25155;-88
2024/04/12 17:51:15;;;;;;;8.00;4.30;;;7.60;99.90;;;;;;1996750;71;25211;-88
2024/04/12 17:54:05;;;;;;;14.03;4.97;;;7.40;99.90;;;;;;1967188;72;25355;-86
2024/04/12 17:59:48;;;;;;;4.93;3.53;;;7.40;99.90;;;;;;1960775;72;26838;-88
2024/04/12 18:02:36;;;;;;;2.80;2.50;;;7.30;99.90;;;;;;1921805;73;25237;-88
2024/04/12 18:05:25;;;;;;;3.47;2.30;;;7.30;99.90;;;;;;1916830;73;25257;-88
2024/04/12 18:11:00;;;;;;;6.67;1.80;;;7.30;99.90;;;;;;1931660;72;27568;-86
2024/04/12 18:13:49;;;;;;;2.43;1.60;;;7.40;99.90;;;;;;1892919;74;25767;-87
2024/04/12 18:16:40;;;;;;;2.07;1.87;;;7.50;99.90;;;;;;1866441;76;25264;-87
2024/04/12 18:22:18;;;;;;;1.80;1.63;;;7.40;99.90;;;;;;1943167;72;26663;-86
2024/04/12 18:25:10;;;;;;;2.90;1.60;;;7.30;99.90;;;;;;1925314;73;25699;-88
2024/04/12 18:27:59;;;;;;;2.07;1.80;;;7.20;99.90;;;;;;1964985;72;25218;-86
2024/04/12 18:30:49;;;;;;;21.30;2.50;;;7.00;99.90;;;;;;1955513;72;25340;-88
2024/04/12 18:33:39;;;;;;;37.70;2.13;;;7.00;99.90;;;;;;1946038;72;25735;-88
2024/04/12 18:36:34;;;;;;;22.73;1.70;;;6.60;99.90;;;;;;1946078;72;25310;-88
2024/04/12 18:45:18;;;;;;;48.67;2.10;;;6.10;99.90;;;;;;1902511;75;25207;-88
2024/04/12 18:48:09;;;;;;;31.77;1.93;;;6.00;99.90;;;;;;1903480;75;25626;-87
2024/04/12 18:50:58;;;;;;;38.10;2.73;;;5.90;99.90;;;;;;1910009;75;25158;-86
2024/04/12 18:56:39;;;;;;;27.73;2.60;;;6.40;99.90;;;;;;1948132;72;27052;-87
2024/04/12 19:02:08;;;;;;;3.03;1.90;;;6.60;99.90;;;;;;1954428;72;26974;-88
2024/04/12 19:04:56;;;;;;;2.27;1.60;;;6.60;99.90;;;;;;1949412;73;25282;-87
2024/04/12 19:07:45;;;;;;;1.80;1.70;;;6.50;99.90;;;;;;1934476;72;25210;-87
2024/04/12 19:10:35;;;;;;;1.60;1.50;;;6.40;99.90;;;;;;1946128;72;25247;-87
2024/04/12 19:13:23;;;;;;;2.80;1.50;;;6.40;99.90;;;;;;1949329;73;25706;-88
2024/04/12 19:16:12;;;;;;;1.83;1.70;;;6.30;99.90;;;;;;1930650;73;25235;-88
2024/04/12 19:19:02;;;;;;;2.60;1.70;;;6.40;99.90;;;;;;1948628;72;25813;-87
2024/04/12 19:21:53;;;;;;;1.50;1.40;;;6.50;99.90;;;;;;1954119;72;25173;-88
2024/04/12 19:24:42;;;;;;;1.40;1.30;;;6.40;99.90;;;;;;1944110;73;25284;-87
2024/04/12 19:27:33;;;;;;;1.43;1.33;;;6.30;99.90;;;;;;1936207;73;25288;-84
2024/04/12 19:30:22;;;;;;;1.40;1.30;;;6.20;99.90;;;;;;1936679;73;25270;-86
2024/04/12 19:33:13;;;;;;;1.30;1.30;;;6.20;99.90;;;;;;1940934;73;25244;-88
2024/04/12 19:36:04;;;;;;;1.50;1.40;;;6.10;99.90;;;;;;1885761;75;25176;-88
2024/04/12 19:41:35;;;;;;;1.43;1.33;;;6.10;99.90;;;;;;1947022;72;27134;-87
2024/04/12 19:44:26;;;;;;;2.50;1.30;;;6.10;99.90;;;;;;1905233;75;25787;-86
2024/04/12 19:47:15;;;;;;;1.50;1.40;;;6.00;99.90;;;;;;1899609;75;25720;-86
2024/04/12 19:50:04;;;;;;;1.67;1.40;;;5.90;99.90;;;;;;1894911;75;25213;-86
2024/04/12 19:52:53;;;;;;;3.30;2.00;;;5.90;99.90;;;;;;1883593;75;25273;-87
2024/04/12 19:55:42;;;;;;;2.20;2.00;;;5.80;99.90;;;;;;1935440;73;25283;-86
2024/04/12 19:58:31;;;;;;;2.70;2.00;;;5.50;99.90;;;;;;1932683;73;25779;-87
2024/04/12 20:01:19;;;;;;;2.43;2.07;;;5.20;99.90;;;;;;1928274;73;25212;-86
2024/04/12 20:04:09;;;;;;;1.70;1.60;;;5.10;99.90;;;;;;1921303;73;25300;-86
2024/04/12 20:06:58;;;;;;;2.60;1.97;;;5.20;99.90;;;;;;1946438;73;25160;-86